»·PEaware :: SKY74 KSBP-KOAR

SKY74 :: KSBP-KOAR

FLIGHT INFORMATION

Flight Status: Arrived
Operator:
Sky High Charters
More flights by this operator :: More flights under this callsign
Pilot: Charles C. (26995)
Aircraft: MCDONNELL-DOUGLAS SKYTRAIN C-47
(DC3)
More flights by this aircraft type
Origin: KSBP San Luis Co Regl
United States
Destination: KOAR Marina
United States
More flights between these airports :: More routes between these airports
Route: CREPE3 PRB V248 SARDO ZURET
File this flight plan on PilotEdge
Remarks:
Altitude:
(Current/Filed)
8,000ft
Speed:
(Current/Filed)
150kts
Departed: 24-Aug-20 09:16 AM
Arrived: 24-Aug-20 10:06 AM
Distance/Time
Traveled:
102nm/0:50
Distance/Time
To Go:
Arrived

Flight Plot

Page will automatically refresh every two minutes.

Flight plan parsing failed; only flown route is shown


Map Options




Map Legend


Flown Route
Filed Route
Departure Airport
Arrival Airport
Navaid (VOR, NDB)
Fix

Horizontal Profiles

Position Reports

Time Latitude Longitude Heading Altitude Ground
Speed
24-Aug-20 09:01 35.235974 -120.635465 303 220ft 0kts
24-Aug-20 09:02 35.235974 -120.635465 303 220ft 0kts
24-Aug-20 09:04 35.235974 -120.635465 303 220ft 0kts
24-Aug-20 09:05 35.235974 -120.635465 303 220ft 0kts
24-Aug-20 09:08 35.235974 -120.635465 303 220ft 0kts
24-Aug-20 09:09 35.235974 -120.635465 303 220ft 0kts
24-Aug-20 09:10 35.235974 -120.635465 303 220ft 0kts
24-Aug-20 09:11 35.235974 -120.635465 303 220ft 0kts
24-Aug-20 09:12 35.235974 -120.635465 303 220ft 0kts
24-Aug-20 09:13 35.234947 -120.634933 124 220ft 17kts
24-Aug-20 09:14 35.233049 -120.632108 210 220ft 0kts
24-Aug-20 09:15 35.237845 -120.641937 305 223ft 109kts
24-Aug-20 09:16 35.252260 -120.675045 294 1015ft 110kts
24-Aug-20 09:17 35.263133 -120.712726 286 1575ft 121kts
24-Aug-20 09:18 35.273561 -120.752214 299 2179ft 123kts
24-Aug-20 09:19 35.303293 -120.771769 327 2782ft 123kts
24-Aug-20 09:20 35.326725 -120.802062 307 3416ft 120kts
24-Aug-20 09:21 35.346341 -120.834546 306 4102ft 120kts
24-Aug-20 09:22 35.370632 -120.857293 23 4796ft 121kts
24-Aug-20 09:23 35.399838 -120.836872 31 5499ft 121kts
24-Aug-20 09:24 35.428688 -120.814864 31 6218ft 123kts
24-Aug-20 09:25 35.457664 -120.792625 31 6923ft 123kts
24-Aug-20 09:26 35.486584 -120.770402 31 7593ft 122kts
24-Aug-20 09:27 35.515420 -120.748224 31 8229ft 122kts
24-Aug-20 09:28 35.549085 -120.722307 31 7984ft 171kts
24-Aug-20 09:29 35.588980 -120.691550 31 8004ft 168kts
24-Aug-20 09:30 35.628821 -120.660824 31 8004ft 169kts
24-Aug-20 09:31 35.668798 -120.630586 18 7986ft 170kts
24-Aug-20 09:32 35.713977 -120.643756 341 8004ft 169kts
24-Aug-20 09:33 35.758794 -120.661643 341 8004ft 169kts
24-Aug-20 09:34 35.803486 -120.679504 341 8004ft 169kts
24-Aug-20 09:35 35.848227 -120.697402 341 8004ft 169kts
24-Aug-20 09:36 35.893092 -120.715367 341 8004ft 169kts
24-Aug-20 09:37 35.937741 -120.733272 341 8004ft 169kts
24-Aug-20 09:38 35.983349 -120.751665 346 7977ft 175kts
24-Aug-20 09:39 36.030141 -120.770395 346 7977ft 178kts
24-Aug-20 09:40 36.077290 -120.789354 345 7977ft 179kts
24-Aug-20 09:41 36.113690 -120.826726 316 7975ft 184kts
24-Aug-20 09:42 36.149759 -120.871823 316 7975ft 184kts
24-Aug-20 09:43 36.185624 -120.916823 316 7976ft 184kts
24-Aug-20 09:44 36.221530 -120.962220 316 7976ft 184kts
24-Aug-20 09:45 36.257342 -121.007286 316 7973ft 184kts
24-Aug-20 09:46 36.292463 -121.051510 316 7970ft 184kts
24-Aug-20 09:47 36.327953 -121.096257 316 7966ft 180kts
24-Aug-20 09:48 36.362869 -121.140331 316 7964ft 178kts
24-Aug-20 09:49 36.397593 -121.184231 316 7838ft 183kts
24-Aug-20 09:50 36.435169 -121.231795 317 6942ft 197kts
24-Aug-20 09:51 36.474695 -121.281716 316 5610ft 199kts
24-Aug-20 09:52 36.511017 -121.327847 316 4914ft 161kts
24-Aug-20 09:53 36.532930 -121.366420 308 4605ft 136kts
24-Aug-20 09:54 36.553191 -121.402993 308 4545ft 125kts
24-Aug-20 09:55 36.574456 -121.441406 307 4014ft 145kts
24-Aug-20 09:56 36.595793 -121.480088 307 3833ft 122kts
24-Aug-20 09:57 36.614007 -121.513088 308 3806ft 111kts
24-Aug-20 09:58 36.631492 -121.544780 307 3231ft 110kts
24-Aug-20 09:59 36.648470 -121.575665 307 2864ft 100kts
24-Aug-20 10:00 36.663101 -121.602695 307 2826ft 96kts
24-Aug-20 10:01 36.667152 -121.637010 278 2285ft 106kts
24-Aug-20 10:02 36.670784 -121.674878 277 1640ft 107kts
24-Aug-20 10:03 36.674266 -121.709886 277 958ft 100kts
24-Aug-20 10:04 36.674664 -121.742873 273 419ft 91kts
24-Aug-20 10:05 36.683306 -121.765087 308 139ft 35kts
24-Aug-20 10:07 36.681674 -121.766173 133 141ft 25kts
24-Aug-20 10:08 36.680291 -121.765433 355 142ft 0kts
24-Aug-20 10:09 36.680291 -121.765433 355 142ft 0kts
24-Aug-20 10:10 36.680291 -121.765433 355 142ft 0kts
24-Aug-20 10:11 36.680291 -121.765433 355 142ft 0kts
24-Aug-20 10:12 36.680291 -121.765433 355 142ft 0kts
24-Aug-20 10:13 36.680291 -121.765433 355 142ft 0kts
24-Aug-20 10:14 36.680291 -121.765433 355 142ft 0kts
24-Aug-20 10:15 36.680291 -121.765433 355 142ft 0kts
24-Aug-20 10:16 36.680291 -121.765433 355 142ft 0kts
24-Aug-20 10:17 36.680291 -121.765433 355 142ft 0kts
24-Aug-20 10:18 36.680291 -121.765433 355 142ft 0kts
24-Aug-20 10:19 36.680291 -121.765433 355 142ft 0kts
24-Aug-20 10:20 36.680291 -121.765433 355 142ft 0kts
24-Aug-20 10:21 36.680291 -121.765433 355 142ft 0kts

Navigation Log

Ident Type
Flight plan parsing failed, navigation log unavailable